Schuler, Canada
Current Conditions -  °F | °C
As of 8:00 AM on Monday 22 Dec 2014 (Local Time) from CYXH Reporting Station
Broken Clouds Broken Clouds  
Wind Chill: 24°   Ceiling: 12000
Heat Index: 30°   Visibility: 15mi
Dew Point: 28°   Wind: 6mph
Humidity: 93%   Direction: 280°W
Pressure: 29.76"   Gusts: NA
Location:  50.37°N, 110.09°W
Report Text: CYXH 221500Z 28005KT 15SM BKN120 M01/M02 A2976 RMK AC7 SLP106
Loading
Personal Weather Stations






























Interactive Weather Map New forecast layout! Learn more

10-Day Weather Forecast

Advertisements
Track Severe Weather on mobile